Time;durP1;ratioP1;P1;durP2;ratioP2;P2;SDS_P1;SDS_P2;PMS_P1;PMS_P2;Temp;Humidity;BMP_temperature;BMP_pressure;BME280_temperature;BME280_humidity;BME280_pressure;Samples;Min_cycle;Max_cycle;Signal;HPM_P1;HPM_P2
2022/03/18 00:01:12;;;;;;;67.25;43.83;;;;;;;10.16;78.42;99741.72;4963982;28;20030;-67
2022/03/18 00:03:39;;;;;;;73.93;46.28;;;;;;;9.84;78.31;99699.09;4950849;28;20315;-65
2022/03/18 00:06:04;;;;;;;68.40;44.25;;;;;;;10.00;78.54;99731.66;4907385;28;20039;-66
2022/03/18 00:08:30;;;;;;;67.03;44.38;;;;;;;9.97;78.66;99734.47;4957685;28;20027;-66
2022/03/18 00:10:56;;;;;;;70.07;44.22;;;;;;;10.04;78.28;99739.19;4970746;28;20457;-67
2022/03/18 00:13:21;;;;;;;68.32;45.78;;;;;;;9.99;78.26;99739.56;4945808;28;20038;-67
2022/03/18 00:15:47;;;;;;;70.90;44.97;;;;;;;9.98;78.37;99730.94;4967361;28;20043;-66
2022/03/18 00:18:12;;;;;;;67.97;44.30;;;;;;;9.96;78.45;99726.78;4957699;28;20042;-66
2022/03/18 00:20:38;;;;;;;69.80;43.38;;;;;;;9.94;78.44;99732.09;4948232;28;20113;-66
2022/03/18 00:23:03;;;;;;;65.57;42.75;;;;;;;9.90;78.94;99729.84;4963846;28;20073;-66
2022/03/18 00:25:29;;;;;;;73.18;45.83;;;;;;;9.87;78.86;99737.84;4961404;28;20121;-66
2022/03/18 00:27:55;;;;;;;70.05;44.38;;;;;;;9.88;79.05;99737.75;4963004;28;20078;-64
2022/03/18 00:30:20;;;;;;;69.88;44.03;;;;;;;9.82;78.58;99725.22;4957681;28;20491;-65
2022/03/18 00:32:46;;;;;;;70.95;45.92;;;;;;;9.73;78.72;99733.66;4986231;28;20505;-65
2022/03/18 00:35:12;;;;;;;69.00;43.60;;;;;;;9.69;78.71;99733.06;4964554;28;20035;-65
2022/03/18 00:37:38;;;;;;;72.03;43.08;;;;;;;9.65;78.76;99736.00;4983364;28;20035;-65
2022/03/18 00:40:06;;;;;;;71.28;45.35;;;;;;;9.70;78.30;99736.50;4951792;28;20110;-64
2022/03/18 00:42:31;;;;;;;68.13;44.03;;;;;;;9.65;78.37;99718.63;4966878;28;20033;-65
2022/03/18 00:44:58;;;;;;;69.68;45.50;;;;;;;9.69;78.33;99725.28;4948100;28;20409;-65
2022/03/18 00:52:52;;;;;;;71.45;44.70;;;;;;;9.73;78.00;99728.47;4963871;28;20057;-65
2022/03/18 00:55:17;;;;;;;71.93;45.00;;;;;;;9.76;78.18;99738.63;4959952;28;20423;-65
2022/03/18 00:57:42;;;;;;;69.57;45.78;;;;;;;9.70;77.86;99724.31;4992625;28;20093;-64
2022/03/18 01:00:08;;;;;;;70.82;45.08;;;;;;;9.69;78.80;99733.06;4961894;28;20042;-64
2022/03/18 01:02:34;;;;;;;74.32;45.28;;;;;;;9.67;79.25;99724.53;4955280;28;20114;-65
2022/03/18 01:04:59;;;;;;;71.65;44.15;;;;;;;9.71;78.60;99723.41;4961986;28;20053;-64
2022/03/18 01:07:25;;;;;;;75.43;46.53;;;;;;;9.41;78.63;99677.94;4944689;28;20504;-67
2022/03/18 01:09:50;;;;;;;69.05;44.92;;;;;;;9.70;78.59;99726.94;4954811;28;20081;-65
2022/03/18 01:12:16;;;;;;;71.90;45.38;;;;;;;9.75;77.96;99722.22;4942963;28;20039;-64
2022/03/18 01:14:42;;;;;;;66.25;42.97;;;;;;;9.59;78.69;99721.69;4961571;28;20266;-65
2022/03/18 01:17:07;;;;;;;72.32;45.03;;;;;;;9.60;78.40;99718.97;4960925;28;20023;-65
2022/03/18 01:19:33;;;;;;;76.15;46.75;;;;;;;9.40;78.31;99676.28;4965813;28;20030;-65
2022/03/18 01:21:58;;;;;;;73.55;45.15;;;;;;;9.62;78.40;99708.50;4964016;28;20422;-65
2022/03/18 01:24:23;;;;;;;70.07;44.95;;;;;;;9.60;78.54;99711.19;4965366;28;20031;-64
2022/03/18 01:26:49;;;;;;;70.15;44.53;;;;;;;9.49;78.65;99700.75;4962007;28;20248;-65
2022/03/18 01:29:14;;;;;;;69.82;44.15;;;;;;;9.60;78.45;99710.34;4961443;28;20515;-63
2022/03/18 01:31:40;;;;;;;70.65;44.97;;;;;;;9.66;78.29;99719.47;4980593;28;20146;-66
2022/03/18 01:34:05;;;;;;;68.85;45.97;;;;;;;9.71;78.37;99719.94;4962496;28;20039;-66
2022/03/18 01:36:30;;;;;;;73.80;46.22;;;;;;;9.44;78.23;99676.91;4946884;28;20665;-65
2022/03/18 01:38:56;;;;;;;75.00;46.13;;;;;;;9.43;78.42;99693.41;4961914;28;20039;-64
2022/03/18 01:41:22;;;;;;;69.38;44.33;;;;;;;9.58;78.08;99700.09;4964176;28;20035;-64
2022/03/18 01:43:47;;;;;;;73.78;45.53;;;;;;;9.59;78.57;99712.13;4971136;28;20113;-64
2022/03/18 01:46:15;;;;;;;74.07;45.67;;;;;;;9.59;78.60;99716.50;4961831;28;20031;-64
2022/03/18 01:48:40;;;;;;;73.40;47.53;;;;;;;9.63;78.71;99717.91;4976550;28;20795;-64
2022/03/18 01:51:07;;;;;;;74.20;46.30;;;;;;;9.61;79.19;99712.00;4962848;28;20059;-67
2022/03/18 01:53:38;;;;;;;76.10;47.03;;;;;;;9.57;79.54;99710.59;4962828;28;20058;-65
2022/03/18 01:56:05;;;;;;;73.78;47.53;;;;;;;9.56;79.49;99704.53;4960393;28;20022;-67
2022/03/18 01:58:30;;;;;;;71.82;46.28;;;;;;;9.61;79.62;99712.00;4963476;28;20055;-66
2022/03/18 02:00:56;;;;;;;73.20;45.92;;;;;;;9.58;78.58;99696.66;4961945;28;20608;-67
2022/03/18 02:03:21;;;;;;;71.60;45.20;;;;;;;9.61;79.16;99693.84;4960413;28;20114;-66
2022/03/18 02:05:47;;;;;;;76.57;46.80;;;;;;;9.64;79.75;99709.19;4957210;28;20042;-66
2022/03/18 02:08:15;;;;;;;77.40;47.05;;;;;;;9.23;80.00;99663.69;4962908;28;20683;-66
2022/03/18 02:10:41;;;;;;;78.88;46.65;;;;;;;9.22;80.49;99681.03;4963202;28;20537;-67
2022/03/18 02:13:06;;;;;;;74.80;45.28;;;;;;;9.26;81.25;99699.00;4961465;28;20047;-66
2022/03/18 02:15:32;;;;;;;78.88;46.55;;;;;;;9.34;81.34;99704.44;4962549;28;20042;-67
2022/03/18 02:17:57;;;;;;;71.63;44.67;;;;;;;9.24;81.60;99699.91;4944540;28;20489;-66
2022/03/18 02:20:23;;;;;;;72.25;47.42;;;;;;;9.18;81.33;99702.09;4962865;28;20023;-67
2022/03/18 02:22:48;;;;;;;75.53;46.03;;;;;;;8.98;81.01;99659.41;4962030;28;20031;-68
2022/03/18 02:25:14;;;;;;;74.75;45.58;;;;;;;9.28;81.50;99708.31;4985673;28;20035;-67
2022/03/18 02:27:41;;;;;;;67.78;44.70;;;;;;;9.08;82.26;99664.81;4992071;28;20041;-67
2022/03/18 02:30:08;;;;;;;75.55;45.97;;;;;;;9.22;81.84;99694.00;4959546;28;20027;-66
2022/03/18 02:32:34;;;;;;;72.38;45.97;;;;;;;9.32;81.98;99709.75;4946923;28;20030;-67
2022/03/18 02:35:01;;;;;;;77.60;46.25;;;;;;;9.21;82.03;99709.69;4945147;28;20035;-67
2022/03/18 02:37:27;;;;;;;71.95;46.30;;;;;;;9.15;82.27;99697.16;4959463;28;20129;-67
2022/03/18 02:39:52;;;;;;;77.00;47.15;;;;;;;9.18;82.25;99715.94;4956975;28;20029;-66
2022/03/18 02:42:18;;;;;;;75.75;46.42;;;;;;;9.23;81.88;99719.00;4961682;28;20406;-66
2022/03/18 02:44:44;;;;;;;75.70;47.50;;;;;;;9.14;81.89;99722.25;4959090;28;20391;-66
2022/03/18 02:47:09;;;;;;;72.50;46.42;;;;;;;9.09;82.02;99721.78;4945534;28;20042;-66
2022/03/18 02:49:35;;;;;;;74.45;45.88;;;;;;;9.12;82.29;99723.31;4994909;28;20603;-67
2022/03/18 02:52:00;;;;;;;79.32;47.85;;;;;;;9.05;82.65;99725.50;4963640;28;20043;-66
2022/03/18 02:54:26;;;;;;;76.03;46.63;;;;;;;8.81;82.52;99687.38;4961168;28;20784;-67
2022/03/18 02:56:51;;;;;;;77.43;46.35;;;;;;;8.97;83.15;99722.63;4995292;28;20434;-67
2022/03/18 02:59:17;;;;;;;76.43;46.88;;;;;;;9.03;82.93;99733.41;4976150;28;20057;-67
2022/03/18 03:01:43;;;;;;;74.13;46.45;;;;;;;8.97;82.41;99700.09;4947019;28;20023;-67
2022/03/18 03:04:09;;;;;;;76.93;48.05;;;;;;;9.19;82.75;99733.16;4959290;28;20026;-67
2022/03/18 03:09:19;;;;;;;79.85;47.33;;;;;;;9.04;82.16;99684.94;4964704;28;20057;-67
2022/03/18 03:11:45;;;;;;;76.80;45.65;;;;;;;9.31;81.96;99728.88;4984950;28;20028;-67
2022/03/18 03:14:12;;;;;;;76.50;47.17;;;;;;;9.08;82.11;99698.53;4961396;28;20046;-66
2022/03/18 03:16:37;;;;;;;74.05;46.03;;;;;;;9.35;81.57;99739.88;4991838;28;20035;-66
2022/03/18 03:19:03;;;;;;;71.70;45.40;;;;;;;9.37;81.55;99738.81;4944582;28;20023;-66
2022/03/18 03:21:29;;;;;;;75.70;46.13;;;;;;;9.26;82.13;99740.50;4964189;28;20386;-66
2022/03/18 03:23:55;;;;;;;73.45;46.50;;;;;;;9.31;82.05;99747.03;4963488;28;20108;-66
2022/03/18 03:26:20;;;;;;;71.35;45.20;;;;;;;9.33;81.98;99747.75;4962752;28;20027;-66
2022/03/18 03:28:46;;;;;;;72.85;46.78;;;;;;;9.41;81.62;99744.59;4971330;28;20076;-66
2022/03/18 03:31:12;;;;;;;74.28;45.80;;;;;;;9.43;81.89;99750.50;4962695;28;20058;-66
2022/03/18 03:33:37;;;;;;;73.47;46.47;;;;;;;9.20;82.19;99708.88;4962751;28;20470;-67
2022/03/18 03:36:03;;;;;;;72.95;46.25;;;;;;;9.45;82.46;99759.00;4964012;28;20054;-66
2022/03/18 03:38:29;;;;;;;75.53;48.25;;;;;;;9.42;82.45;99747.09;4990212;28;20046;-65
2022/03/18 03:40:55;;;;;;;71.65;45.00;;;;;;;9.50;81.44;99753.50;4964375;28;20608;-66
2022/03/18 03:43:20;;;;;;;72.97;46.47;;;;;;;9.42;81.86;99748.88;4945664;28;20169;-65
2022/03/18 03:45:45;;;;;;;73.70;46.72;;;;;;;9.47;81.96;99753.72;4964069;28;20126;-66
2022/03/18 03:48:11;;;;;;;75.65;48.05;;;;;;;9.44;81.62;99752.19;4948554;28;20034;-65
2022/03/18 03:50:40;;;;;;;76.68;46.92;;;;;;;9.46;81.68;99762.47;4965360;28;20043;-65
2022/03/18 03:53:07;;;;;;;72.93;46.00;;;;;;;9.42;81.89;99749.69;4963369;28;20058;-64
2022/03/18 03:55:34;;;;;;;70.20;44.67;;;;;;;9.45;81.59;99758.19;4992483;28;20039;-65
2022/03/18 03:57:59;;;;;;;71.35;45.03;;;;;;;9.33;82.12;99760.72;4965580;28;20037;-67
2022/03/18 04:00:24;;;;;;;72.85;45.72;;;;;;;9.33;81.71;99759.91;4948339;28;20035;-67
2022/03/18 04:02:50;;;;;;;76.35;45.72;;;;;;;9.34;81.90;99767.56;4963697;28;20395;-67
2022/03/18 04:05:15;;;;;;;74.07;46.53;;;;;;;9.13;81.88;99718.03;4963974;28;20038;-67
2022/03/18 04:07:42;;;;;;;75.72;47.50;;;;;;;9.41;81.99;99766.19;4985070;28;20031;-64
2022/03/18 04:10:10;;;;;;;74.80;45.97;;;;;;;9.44;81.46;99765.16;4996763;28;20031;-66
2022/03/18 04:12:36;;;;;;;68.28;45.95;;;;;;;9.44;82.11;99767.75;4961882;28;20390;-66
2022/03/18 04:15:02;;;;;;;77.88;46.72;;;;;;;9.39;81.66;99765.47;4965479;28;20030;-66
2022/03/18 04:17:45;;;;;;;77.97;46.10;;;;;;;9.17;80.86;99721.22;4963293;28;20474;-66
2022/03/18 04:20:30;;;;;;;75.93;46.85;;;;;;;9.38;81.30;99781.16;4961308;28;20042;-65
2022/03/18 04:22:55;;;;;;;79.43;45.45;;;;;;;9.29;82.01;99774.88;4947687;28;20584;-66
2022/03/18 04:25:21;;;;;;;71.40;46.30;;;;;;;9.10;82.37;99740.75;4962252;28;20073;-66
2022/03/18 04:27:46;;;;;;;75.13;47.10;;;;;;;9.12;82.93;99744.88;4966662;28;20035;-65
2022/03/18 04:30:13;;;;;;;70.70;46.08;;;;;;;9.29;82.93;99774.88;4960594;28;20481;-65
2022/03/18 04:32:39;;;;;;;75.25;47.10;;;;;;;9.35;82.76;99782.22;4970637;28;20404;-66
2022/03/18 04:35:06;;;;;;;74.05;46.45;;;;;;;9.35;82.82;99778.78;4963175;28;20038;-65
2022/03/18 04:37:31;;;;;;;80.25;47.70;;;;;;;9.32;83.29;99786.78;4964262;28;20493;-66
2022/03/18 04:39:57;;;;;;;77.47;46.80;;;;;;;9.14;83.33;99757.75;4988436;28;20034;-65
2022/03/18 04:42:22;;;;;;;79.32;47.35;;;;;;;9.39;83.08;99798.41;4943217;28;20039;-66
2022/03/18 04:44:48;;;;;;;73.80;45.35;;;;;;;9.42;83.41;99796.41;4989336;28;20038;-66
2022/03/18 04:47:13;;;;;;;76.75;46.30;;;;;;;9.14;83.14;99757.75;4982305;28;20086;-66
2022/03/18 04:49:39;;;;;;;73.60;46.47;;;;;;;9.27;82.98;99792.28;4961324;28;20387;-66
2022/03/18 04:52:05;;;;;;;76.38;47.55;;;;;;;9.35;82.69;99809.94;4956245;28;20030;-66
2022/03/18 04:54:30;;;;;;;76.05;46.63;;;;;;;9.07;82.26;99749.56;4957087;28;20890;-65
2022/03/18 04:59:42;;;;;;;73.00;46.40;;;;;;;9.31;82.13;99795.50;4983012;28;20050;-65
2022/03/18 05:02:12;;;;;;;76.05;46.65;;;;;;;9.39;81.92;99806.19;4946937;28;20666;-64
2022/03/18 05:04:38;;;;;;;74.32;45.80;;;;;;;9.39;82.33;99804.41;4962527;28;20039;-65
2022/03/18 05:07:06;;;;;;;81.75;47.83;;;;;;;9.21;82.22;99780.56;4958183;28;20533;-64
2022/03/18 05:09:32;;;;;;;71.80;46.63;;;;;;;9.40;82.75;99803.50;4959336;28;20664;-65
2022/03/18 05:11:57;;;;;;;78.32;47.40;;;;;;;9.33;82.78;99802.25;4960791;28;20031;-65
2022/03/18 05:14:23;;;;;;;73.15;46.08;;;;;;;9.38;83.19;99813.16;4995980;28;20043;-66
2022/03/18 05:16:49;;;;;;;74.97;47.80;;;;;;;9.20;82.93;99788.50;4958568;28;20025;-65
2022/03/18 05:19:15;;;;;;;79.20;47.05;;;;;;;9.40;82.76;99816.47;4993226;28;20031;-65
2022/03/18 05:21:41;;;;;;;79.00;47.35;;;;;;;9.26;82.69;99803.63;4949457;28;20443;-64
2022/03/18 05:24:07;;;;;;;72.50;45.53;;;;;;;9.40;83.17;99823.41;4947358;28;20038;-66
2022/03/18 05:26:33;;;;;;;74.18;46.65;;;;;;;9.39;83.61;99813.97;4962075;28;20371;-66
2022/03/18 05:28:59;;;;;;;72.05;46.90;;;;;;;9.40;83.25;99826.84;4947546;28;20050;-65
2022/03/18 05:31:26;;;;;;;78.45;47.75;;;;;;;9.39;82.81;99822.59;4962172;28;20030;-64
2022/03/18 05:33:51;;;;;;;74.55;46.47;;;;;;;9.38;82.93;99831.31;4963984;28;20030;-66
2022/03/18 05:36:17;;;;;;;78.78;48.53;;;;;;;9.37;82.90;99828.84;4962453;28;20460;-65
2022/03/18 05:38:42;;;;;;;78.18;48.85;;;;;;;9.33;82.77;99830.81;4962912;28;20030;-65
2022/03/18 05:41:08;;;;;;;76.93;47.33;;;;;;;9.36;82.55;99830.59;4965495;28;20522;-64
2022/03/18 05:43:33;;;;;;;79.55;46.78;;;;;;;9.34;82.82;99835.03;4963739;28;20046;-64
2022/03/18 05:45:58;;;;;;;74.65;45.83;;;;;;;9.35;83.36;99831.53;4965508;28;20030;-65
2022/03/18 05:48:24;;;;;;;76.03;47.08;;;;;;;9.29;83.76;99833.72;4946865;28;20030;-65
2022/03/18 05:50:50;;;;;;;73.05;45.38;;;;;;;9.18;83.90;99821.47;4947350;28;20119;-65
2022/03/18 05:53:15;;;;;;;76.97;46.45;;;;;;;9.17;84.49;99825.03;4995717;28;20047;-65
2022/03/18 05:58:38;;;;;;;76.55;48.00;;;;;;;9.09;84.55;99835.94;4953194;28;20050;-65
2022/03/18 06:01:04;;;;;;;74.82;45.78;;;;;;;9.06;85.09;99843.09;4971136;28;20038;-65
2022/03/18 06:03:29;;;;;;;79.38;45.88;;;;;;;8.91;85.68;99843.22;4937662;28;20035;-65
2022/03/18 06:05:55;;;;;;;74.53;46.58;;;;;;;8.90;85.20;99831.16;4976885;28;20555;-66
2022/03/18 06:13:49;;;;;;;83.25;48.63;;;;;;;9.12;84.29;99843.50;4962696;28;20038;-65
2022/03/18 06:16:14;;;;;;;83.18;48.53;;;;;;;9.13;84.47;99854.72;4960323;28;20035;-65
2022/03/18 06:18:40;;;;;;;76.82;46.22;;;;;;;9.04;83.85;99833.66;4957607;28;20042;-66
2022/03/18 06:21:06;;;;;;;81.22;48.25;;;;;;;9.12;83.76;99861.66;4962516;28;20102;-65
2022/03/18 06:23:32;;;;;;;70.50;45.00;;;;;;;9.18;83.81;99857.81;4959025;28;20089;-65
2022/03/18 06:25:58;;;;;;;75.25;46.72;;;;;;;8.89;83.44;99806.16;4938774;28;20763;-65
2022/03/18 06:28:23;;;;;;;82.60;49.05;;;;;;;9.12;84.46;99858.25;4949768;28;20071;-65
2022/03/18 06:30:50;;;;;;;73.80;46.80;;;;;;;8.89;84.41;99813.94;4955053;28;20093;-66
2022/03/18 06:33:15;;;;;;;78.20;47.80;;;;;;;9.27;84.08;99864.97;4932945;28;20038;-65
2022/03/18 06:35:41;;;;;;;79.60;47.55;;;;;;;9.34;83.71;99861.00;4983413;28;20035;-65
2022/03/18 06:38:06;;;;;;;76.78;48.53;;;;;;;9.06;83.63;99823.16;4960243;28;20446;-65
2022/03/18 06:40:32;;;;;;;75.07;47.15;;;;;;;9.27;84.11;99864.13;4938713;28;20037;-65
2022/03/18 06:42:57;;;;;;;75.10;44.03;;;;;;;9.09;82.13;99829.91;4955077;28;20027;-65
2022/03/18 06:45:23;;;;;;;61.55;38.53;;;;;;;9.36;77.52;99873.88;4981974;28;20038;-65
2022/03/18 06:47:48;;;;;;;57.83;38.47;;;;;;;9.42;76.16;99882.09;4954884;28;20031;-65
2022/03/18 06:50:13;;;;;;;58.40;36.45;;;;;;;9.49;73.88;99885.09;4957978;28;20031;-65
2022/03/18 06:52:39;;;;;;;54.67;35.17;;;;;;;9.57;71.93;99882.78;4976483;28;20035;-66
2022/03/18 06:55:05;;;;;;;58.50;37.47;;;;;;;9.65;71.82;99894.41;4973292;28;20146;-65
2022/03/18 06:57:30;;;;;;;51.88;35.03;;;;;;;9.73;69.70;99895.53;4984973;28;20117;-65
2022/03/18 06:59:56;;;;;;;44.53;31.10;;;;;;;9.73;67.59;99899.88;4951786;28;20035;-65
2022/03/18 07:02:22;;;;;;;48.10;30.58;;;;;;;9.46;66.97;99855.91;4952502;28;20035;-65
2022/03/18 07:04:47;;;;;;;52.67;31.08;;;;;;;9.61;66.13;99865.22;4977532;28;20364;-65
2022/03/18 07:07:13;;;;;;;53.05;32.55;;;;;;;9.95;66.55;99904.41;4943131;28;20031;-65
2022/03/18 07:09:38;;;;;;;51.20;31.48;;;;;;;9.74;65.73;99870.38;4940577;28;20085;-65
2022/03/18 07:12:04;;;;;;;49.80;31.10;;;;;;;10.00;64.79;99907.50;4971964;28;20090;-66
2022/03/18 07:14:29;;;;;;;51.53;29.77;;;;;;;9.98;65.35;99911.97;4947133;28;20557;-64
2022/03/18 07:19:39;;;;;;;37.78;24.35;;;;;;;9.98;61.92;99917.16;4945277;28;20066;-66
2022/03/18 07:22:05;;;;;;;34.33;22.45;;;;;;;9.97;61.06;99915.53;4931823;28;20032;-65
2022/03/18 07:24:31;;;;;;;35.30;20.35;;;;;;;10.00;58.61;99915.28;4973419;28;20063;-66
2022/03/18 07:26:57;;;;;;;25.90;18.85;;;;;;;9.99;57.43;99922.25;4957596;28;21706;-67
2022/03/18 07:29:22;;;;;;;28.98;18.17;;;;;;;9.79;55.94;99887.28;4929285;28;20045;-66
2022/03/18 07:31:47;;;;;;;26.15;17.65;;;;;;;10.10;54.83;99925.88;4936928;28;20026;-65
2022/03/18 07:34:13;;;;;;;29.63;18.10;;;;;;;10.09;54.97;99930.22;4933193;28;20034;-65
2022/03/18 07:36:38;;;;;;;25.67;18.42;;;;;;;10.06;54.94;99917.47;4946156;28;20035;-66
2022/03/18 07:39:04;;;;;;;28.63;18.33;;;;;;;9.92;54.39;99878.63;4943903;28;20035;-65
2022/03/18 07:41:30;;;;;;;25.17;16.25;;;;;;;10.20;54.23;99932.06;4976188;28;20031;-66
2022/03/18 07:43:56;;;;;;;22.33;16.38;;;;;;;10.14;53.20;99933.31;4984417;28;20732;-65
2022/03/18 07:46:21;;;;;;;24.17;16.30;;;;;;;10.13;52.83;99929.09;4959012;28;20035;-65
2022/03/18 07:48:46;;;;;;;23.35;14.63;;;;;;;10.17;52.00;99933.13;4954079;28;20119;-65
2022/03/18 07:51:12;;;;;;;20.20;14.88;;;;;;;10.23;51.38;99937.03;4960017;28;20042;-65
2022/03/18 07:53:38;;;;;;;22.55;15.70;;;;;;;9.92;51.47;99882.06;4886261;28;20046;-66
2022/03/18 07:56:04;;;;;;;21.88;15.05;;;;;;;10.23;50.99;99931.84;4954419;28;20600;-65
2022/03/18 07:58:29;;;;;;;22.40;14.40;;;;;;;10.24;50.06;99930.06;4955730;28;20629;-65
2022/03/18 08:00:55;;;;;;;20.90;13.93;;;;;;;10.31;49.94;99933.91;4953774;28;20130;-64
2022/03/18 08:03:20;;;;;;;20.77;14.18;;;;;;;10.36;50.32;99940.44;4956848;28;20840;-66
2022/03/18 08:05:46;;;;;;;20.70;13.50;;;;;;;10.41;49.36;99941.91;4949618;28;20370;-66
2022/03/18 08:08:12;;;;;;;19.13;13.85;;;;;;;10.42;48.76;99931.38;4962103;28;20505;-65
2022/03/18 08:10:37;;;;;;;20.38;13.65;;;;;;;10.41;48.79;99932.31;4960323;28;20030;-65
2022/03/18 08:13:03;;;;;;;18.70;13.25;;;;;;;10.45;48.21;99935.53;4981841;28;20031;-66
2022/03/18 08:15:29;;;;;;;19.05;13.73;;;;;;;10.45;48.29;99940.72;4963149;28;20485;-65
2022/03/18 08:17:54;;;;;;;18.13;13.63;;;;;;;10.50;47.36;99947.25;4965750;28;20167;-65
2022/03/18 08:20:21;;;;;;;18.05;13.38;;;;;;;10.56;47.08;99941.59;4985646;28;20822;-64
2022/03/18 08:22:47;;;;;;;17.38;13.15;;;;;;;10.65;47.31;99952.28;4958958;28;20043;-64
2022/03/18 08:25:13;;;;;;;16.55;12.82;;;;;;;10.56;47.72;99952.00;4971775;28;20106;-67
2022/03/18 08:27:39;;;;;;;17.90;12.73;;;;;;;10.56;47.37;99962.41;4960281;28;20487;-67
2022/03/18 08:30:08;;;;;;;18.40;12.40;;;;;;;10.51;47.18;99942.88;4978400;28;20046;-66
2022/03/18 08:32:34;;;;;;;18.35;13.40;;;;;;;10.60;47.32;99963.00;4957204;28;20030;-65
2022/03/18 08:35:00;;;;;;;21.35;13.60;;;;;;;10.35;47.21;99925.81;4978983;28;20031;-66
2022/03/18 08:40:11;;;;;;;18.13;12.85;;;;;;;10.60;47.02;99959.59;4965243;28;20510;-66
2022/03/18 08:42:37;;;;;;;19.58;13.13;;;;;;;10.66;47.07;99972.13;4960640;28;20070;-66
2022/03/18 08:45:03;;;;;;;22.17;13.25;;;;;;;10.67;47.57;99971.22;4956710;28;20161;-66
2022/03/18 08:47:29;;;;;;;19.13;13.25;;;;;;;10.63;46.58;99968.00;4961132;28;20043;-66
2022/03/18 08:49:55;;;;;;;17.27;12.82;;;;;;;10.35;46.53;99932.78;4921663;28;20045;-66
2022/03/18 08:52:20;;;;;;;20.48;13.25;;;;;;;10.62;47.08;99970.72;5000289;28;20031;-66
2022/03/18 08:54:46;;;;;;;19.27;13.05;;;;;;;10.67;47.02;99977.22;4994822;28;20343;-66
2022/03/18 08:57:11;;;;;;;18.27;13.00;;;;;;;10.57;47.89;99971.06;4959689;28;20113;-66
2022/03/18 08:59:37;;;;;;;21.95;15.32;;;;;;;10.67;46.66;99966.81;4995561;28;20370;-66
2022/03/18 09:02:03;;;;;;;25.17;17.98;;;;;;;10.47;46.94;99941.44;4963459;28;20027;-66
2022/03/18 09:04:28;;;;;;;24.80;20.25;;;;;;;10.73;46.67;99975.94;4963713;28;20470;-66
2022/03/18 09:06:54;;;;;;;24.13;21.42;;;;;;;10.80;46.67;99978.94;4990634;28;20084;-67
2022/03/18 09:09:19;;;;;;;23.60;16.35;;;;;;;10.83;47.02;99984.75;4954057;28;20035;-66
2022/03/18 09:11:44;;;;;;;23.75;14.75;;;;;;;10.85;46.27;99995.06;4949732;28;20554;-66
2022/03/18 09:14:11;;;;;;;22.17;16.23;;;;;;;10.68;46.42;99957.28;4956818;28;20030;-66
2022/03/18 09:16:38;;;;;;;26.55;15.60;;;;;;;10.93;46.67;99985.75;4948987;28;20039;-66
2022/03/18 09:19:04;;;;;;;19.90;14.15;;;;;;;11.04;46.38;99986.69;4983052;28;20121;-66
2022/03/18 09:21:29;;;;;;;20.85;14.32;;;;;;;11.04;46.35;99995.34;4950804;28;20054;-66
2022/03/18 09:23:55;;;;;;;20.92;14.07;;;;;;;11.08;45.88;100002.00;4962755;28;20038;-66
2022/03/18 09:26:20;;;;;;;21.15;16.63;;;;;;;11.06;45.68;99995.22;4981224;28;20433;-66
2022/03/18 09:28:46;;;;;;;24.27;17.50;;;;;;;11.24;45.74;100006.88;4977685;28;20041;-66
2022/03/18 09:31:12;;;;;;;23.02;14.63;;;;;;;11.17;45.90;100003.09;4968739;28;20046;-66
2022/03/18 09:33:37;;;;;;;21.10;14.50;;;;;;;11.25;45.86;100012.94;4983727;28;20038;-67
2022/03/18 09:36:03;;;;;;;19.42;13.65;;;;;;;11.26;45.77;100018.03;4986447;28;20049;-66
2022/03/18 09:38:29;;;;;;;18.98;13.18;;;;;;;11.01;45.79;99972.16;4956110;28;20039;-66
2022/03/18 09:40:54;;;;;;;19.05;13.20;;;;;;;11.25;45.04;100016.34;4956012;28;20035;-66
2022/03/18 09:43:21;;;;;;;16.88;12.82;;;;;;;11.19;45.07;100016.81;4953669;28;20043;-66
2022/03/18 09:45:47;;;;;;;17.45;12.52;;;;;;;11.23;45.17;100015.63;4970047;28;20494;-66
2022/03/18 09:48:13;;;;;;;17.85;13.07;;;;;;;11.09;45.09;99982.00;4956461;28;20023;-67
2022/03/18 09:50:39;;;;;;;22.17;12.80;;;;;;;11.34;45.03;100018.25;4947895;28;20031;-67
2022/03/18 09:53:05;;;;;;;17.67;13.05;;;;;;;11.38;45.09;100008.44;4948724;28;20042;-67
2022/03/18 09:55:31;;;;;;;19.45;12.38;;;;;;;11.51;44.76;100013.56;4966884;28;20557;-67
2022/03/18 09:57:57;;;;;;;19.88;13.68;;;;;;;11.61;45.44;100011.06;4978603;28;20378;-67
2022/03/18 10:00:22;;;;;;;18.23;12.77;;;;;;;11.55;44.97;99999.34;4958392;28;20470;-67
2022/03/18 10:03:08;;;;;;;26.13;13.05;;;;;;;11.66;45.12;100014.16;4971439;28;20574;-67
2022/03/18 10:05:34;;;;;;;17.27;12.82;;;;;;;11.63;44.67;100015.22;4949253;28;20153;-67
2022/03/18 10:07:59;;;;;;;21.92;14.07;;;;;;;11.74;45.09;100017.03;4979182;28;20461;-67
2022/03/18 10:10:26;;;;;;;20.30;13.30;;;;;;;11.70;44.99;100005.16;4979997;28;20047;-67
2022/03/18 10:12:55;;;;;;;20.85;13.88;;;;;;;11.78;44.48;100009.81;4956114;28;20035;-67
2022/03/18 10:15:23;;;;;;;18.83;13.70;;;;;;;11.80;45.01;100015.72;4952186;28;20434;-67
2022/03/18 10:17:56;;;;;;;19.33;13.93;;;;;;;11.81;45.07;100020.81;4950235;28;20042;-67
2022/03/18 10:20:32;;;;;;;21.23;13.65;;;;;;;11.86;44.88;100017.84;4949385;28;20458;-67
2022/03/18 10:23:18;;;;;;;21.67;14.88;;;;;;;11.80;44.17;100028.75;4981093;28;20034;-67
2022/03/18 10:25:52;;;;;;;20.52;14.25;;;;;;;11.59;44.12;99973.88;4949669;28;20035;-67
2022/03/18 10:28:36;;;;;;;19.77;13.70;;;;;;;11.86;44.66;100025.66;4954411;28;20069;-67
2022/03/18 10:31:14;;;;;;;18.67;13.82;;;;;;;11.84;44.28;100017.94;4954132;28;20038;-67
2022/03/18 10:37:11;;;;;;;21.88;13.70;;;;;;;11.85;44.79;100017.03;4950635;28;20073;-66
2022/03/18 10:39:41;;;;;;;21.25;14.55;;;;;;;11.90;44.28;100016.69;4974402;28;20027;-66
2022/03/18 10:42:12;;;;;;;18.60;14.02;;;;;;;11.93;43.73;100013.84;4947306;28;20732;-65
2022/03/18 10:44:55;;;;;;;20.42;13.63;;;;;;;12.05;44.21;100025.13;4956113;28;20045;-65
2022/03/18 10:47:35;;;;;;;21.10;14.15;;;;;;;12.12;44.63;100018.47;4958591;28;20038;-65
2022/03/18 10:50:10;;;;;;;20.85;13.93;;;;;;;11.98;44.17;99985.66;4963603;28;20058;-66
2022/03/18 10:52:40;;;;;;;19.08;13.93;;;;;;;12.16;44.37;100016.44;4962002;28;20046;-65
2022/03/18 10:55:22;;;;;;;18.48;13.20;;;;;;;12.20;43.91;100017.88;4956457;28;20937;-66
2022/03/18 10:58:01;;;;;;;20.75;14.27;;;;;;;12.15;43.19;100023.41;4938728;28;20576;-66
2022/03/18 11:00:29;;;;;;;21.70;14.63;;;;;;;11.98;42.43;99977.81;4952395;28;20389;-65
2022/03/18 11:02:58;;;;;;;18.17;14.07;;;;;;;12.26;43.30;100022.59;4955074;28;20482;-66
2022/03/18 11:05:25;;;;;;;18.58;14.77;;;;;;;12.19;43.12;100014.41;4960867;28;20027;-65
2022/03/18 11:07:51;;;;;;;21.08;14.65;;;;;;;12.14;43.49;100010.50;4964245;28;20042;-66
2022/03/18 11:13:03;;;;;;;18.50;14.20;;;;;;;12.20;43.13;100028.28;4952649;28;20084;-65
2022/03/18 11:15:34;;;;;;;19.40;13.98;;;;;;;12.00;43.57;99986.34;4979889;28;21201;-66
2022/03/18 11:18:03;;;;;;;20.08;14.52;;;;;;;12.18;43.75;100025.81;4967693;28;20030;-65
2022/03/18 11:20:30;;;;;;;22.55;14.95;;;;;;;12.24;43.16;100024.50;4965332;28;20033;-65
2022/03/18 11:22:55;;;;;;;19.92;14.25;;;;;;;12.28;42.79;100023.28;4967599;28;20035;-66
2022/03/18 11:25:22;;;;;;;17.63;14.40;;;;;;;12.36;42.86;100020.91;4977409;28;20050;-65
2022/03/18 11:27:48;;;;;;;20.10;14.60;;;;;;;12.47;42.84;100015.66;4986124;28;20058;-65
2022/03/18 11:30:41;;;;;;;23.42;15.20;;;;;;;12.39;42.88;100015.44;4935974;28;20069;-66
2022/03/18 11:33:09;;;;;;;19.27;14.13;;;;;;;12.31;43.29;100018.66;4967095;28;20130;-65
2022/03/18 11:35:47;;;;;;;21.75;14.80;;;;;;;12.29;43.04;100004.09;4952666;28;20428;-65
2022/03/18 11:38:14;;;;;;;20.73;15.73;;;;;;;12.32;43.00;100016.91;4950672;28;20046;-66
2022/03/18 11:41:01;;;;;;;23.05;14.93;;;;;;;12.30;42.54;100003.13;4932026;28;20769;-66
2022/03/18 11:43:33;;;;;;;21.50;14.13;;;;;;;12.29;42.96;100009.31;4954424;28;20116;-65
2022/03/18 11:46:16;;;;;;;19.33;14.23;;;;;;;12.04;43.06;99979.13;4954353;28;20042;-65
2022/03/18 11:48:55;;;;;;;20.98;14.80;;;;;;;12.06;42.83;99965.00;4955777;28;20035;-65
2022/03/18 11:51:35;;;;;;;21.42;15.45;;;;;;;11.98;42.71;99949.16;4985637;28;20096;-65